sensor_id;sensor_type;location;lat;lon;timestamp;noise_LAeq;noise_LA_min;noise_LA_max;noise_LA01;noise_LA95
66449;Laerm;56828;52.294;4.666;2022-12-11T00:00:11;39.90;36.65;48.22;;
66449;Laerm;56828;52.294;4.666;2022-12-11T00:00:27;43.21;40.21;45.54;;
66449;Laerm;56828;52.294;4.666;2022-12-11T00:00:38;40.71;38.08;42.78;;
66449;Laerm;56828;52.294;4.666;2022-12-11T00:00:50;36.88;34.11;40.58;;
66449;Laerm;56828;52.294;4.666;2022-12-11T00:01:10;44.08;34.29;60.37;;
66449;Laerm;56828;52.294;4.666;2022-12-11T00:01:29;42.18;34.30;48.10;;
66449;Laerm;56828;52.294;4.666;2022-12-11T00:01:42;35.81;33.19;37.86;;
66449;Laerm;56828;52.294;4.666;2022-12-11T00:01:53;39.00;34.08;42.68;;
66449;Laerm;56828;52.294;4.666;2022-12-11T00:02:03;41.77;34.76;47.30;;
66449;Laerm;56828;52.294;4.666;2022-12-11T00:02:16;35.38;33.18;37.48;;
66449;Laerm;56828;52.294;4.666;2022-12-11T00:02:27;36.17;33.71;38.41;;
66449;Laerm;56828;52.294;4.666;2022-12-11T00:02:37;34.33;32.07;36.41;;
66449;Laerm;56828;52.294;4.666;2022-12-11T00:03:04;34.25;32.14;37.22;;
66449;Laerm;56828;52.294;4.666;2022-12-11T00:03:15;35.51;33.49;41.38;;
66449;Laerm;56828;52.294;4.666;2022-12-11T00:03:27;37.59;33.90;45.30;;
66449;Laerm;56828;52.294;4.666;2022-12-11T00:03:38;35.95;33.78;41.66;;
66449;Laerm;56828;52.294;4.666;2022-12-11T00:03:50;36.13;33.21;40.17;;
66449;Laerm;56828;52.294;4.666;2022-12-11T00:04:03;38.25;35.45;48.88;;
66449;Laerm;56828;52.294;4.666;2022-12-11T00:04:14;36.19;33.50;38.83;;
66449;Laerm;56828;52.294;4.666;2022-12-11T00:04:30;36.20;33.45;39.27;;
66449;Laerm;56828;52.294;4.666;2022-12-11T00:04:40;38.35;34.86;43.03;;
66449;Laerm;56828;52.294;4.666;2022-12-11T00:04:53;41.35;37.55;45.48;;
66449;Laerm;56828;52.294;4.666;2022-12-11T00:05:06;41.80;37.77;44.72;;
66449;Laerm;56828;52.294;4.666;2022-12-11T00:05:31;37.76;33.80;44.41;;
66449;Laerm;56828;52.294;4.666;2022-12-11T00:05:43;34.98;32.90;37.71;;
66449;Laerm;56828;52.294;4.666;2022-12-11T00:05:55;35.91;33.48;39.63;;
66449;Laerm;56828;52.294;4.666;2022-12-11T00:06:10;36.41;34.01;39.80;;
66449;Laerm;56828;52.294;4.666;2022-12-11T00:06:21;37.70;33.88;41.42;;
66449;Laerm;56828;52.294;4.666;2022-12-11T00:06:31;36.61;33.67;39.91;;
66449;Laerm;56828;52.294;4.666;2022-12-11T00:06:42;35.24;33.30;38.15;;
66449;Laerm;56828;52.294;4.666;2022-12-11T00:06:59;35.33;33.08;41.65;;
66449;Laerm;56828;52.294;4.666;2022-12-11T00:07:09;35.75;33.49;39.38;;
66449;Laerm;56828;52.294;4.666;2022-12-11T00:07:19;40.86;34.17;55.72;;
66449;Laerm;56828;52.294;4.666;2022-12-11T00:07:29;35.24;33.19;37.66;;
66449;Laerm;56828;52.294;4.666;2022-12-11T00:07:42;38.63;34.28;52.07;;
66449;Laerm;56828;52.294;4.666;2022-12-11T00:07:52;39.48;34.83;42.73;;
66449;Laerm;56828;52.294;4.666;2022-12-11T00:08:03;41.21;36.36;48.42;;
66449;Laerm;56828;52.294;4.666;2022-12-11T00:08:13;45.75;41.45;59.14;;
66449;Laerm;56828;52.294;4.666;2022-12-11T00:08:23;39.63;36.72;43.08;;
66449;Laerm;56828;52.294;4.666;2022-12-11T00:08:37;37.57;34.69;42.44;;
66449;Laerm;56828;52.294;4.666;2022-12-11T00:08:49;36.12;33.95;38.96;;
66449;Laerm;56828;52.294;4.666;2022-12-11T00:09:00;40.94;35.62;45.06;;
66449;Laerm;56828;52.294;4.666;2022-12-11T00:09:13;41.88;37.06;46.62;;
66449;Laerm;56828;52.294;4.666;2022-12-11T00:09:24;37.32;33.62;42.42;;
66449;Laerm;56828;52.294;4.666;2022-12-11T00:09:34;35.89;33.92;38.97;;
66449;Laerm;56828;52.294;4.666;2022-12-11T00:09:44;35.90;34.19;37.67;;
66449;Laerm;56828;52.294;4.666;2022-12-11T00:09:54;36.77;33.11;49.97;;
66449;Laerm;56828;52.294;4.666;2022-12-11T00:10:05;34.96;33.30;37.66;;
66449;Laerm;56828;52.294;4.666;2022-12-11T00:10:15;35.84;33.40;39.90;;
66449;Laerm;56828;52.294;4.666;2022-12-11T00:10:28;40.28;33.94;53.98;;
66449;Laerm;56828;52.294;4.666;2022-12-11T00:10:39;35.82;34.13;37.59;;
66449;Laerm;56828;52.294;4.666;2022-12-11T00:10:49;37.24;34.65;44.97;;
66449;Laerm;56828;52.294;4.666;2022-12-11T00:10:59;35.42;33.12;39.34;;
66449;Laerm;56828;52.294;4.666;2022-12-11T00:11:15;34.55;32.99;38.49;;
66449;Laerm;56828;52.294;4.666;2022-12-11T00:11:26;38.20;33.32;48.29;;
66449;Laerm;56828;52.294;4.666;2022-12-11T00:11:36;35.87;32.78;48.47;;
66449;Laerm;56828;52.294;4.666;2022-12-11T00:11:49;38.11;34.00;51.63;;
66449;Laerm;56828;52.294;4.666;2022-12-11T00:12:02;39.00;35.56;52.39;;
66449;Laerm;56828;52.294;4.666;2022-12-11T00:12:18;40.75;37.61;45.33;;
66449;Laerm;56828;52.294;4.666;2022-12-11T00:12:38;37.42;34.05;45.79;;
66449;Laerm;56828;52.294;4.666;2022-12-11T00:12:48;35.63;34.00;37.96;;
66449;Laerm;56828;52.294;4.666;2022-12-11T00:12:58;37.00;34.61;42.13;;
66449;Laerm;56828;52.294;4.666;2022-12-11T00:13:08;36.42;34.46;41.00;;
66449;Laerm;56828;52.294;4.666;2022-12-11T00:13:19;35.83;33.57;44.92;;
66449;Laerm;56828;52.294;4.666;2022-12-11T00:13:29;35.34;32.67;44.84;;
66449;Laerm;56828;52.294;4.666;2022-12-11T00:13:39;35.07;32.41;45.93;;
66449;Laerm;56828;52.294;4.666;2022-12-11T00:13:50;34.18;32.61;40.94;;
66449;Laerm;56828;52.294;4.666;2022-12-11T00:14:00;35.15;32.78;43.45;;
66449;Laerm;56828;52.294;4.666;2022-12-11T00:14:10;34.21;31.57;39.25;;
66449;Laerm;56828;52.294;4.666;2022-12-11T00:14:20;34.78;31.76;46.41;;
66449;Laerm;56828;52.294;4.666;2022-12-11T00:14:31;33.81;32.13;36.42;;
66449;Laerm;56828;52.294;4.666;2022-12-11T00:14:41;34.03;31.96;37.03;;
66449;Laerm;56828;52.294;4.666;2022-12-11T00:14:51;33.68;31.98;36.30;;
66449;Laerm;56828;52.294;4.666;2022-12-11T00:15:02;33.97;31.25;36.11;;
66449;Laerm;56828;52.294;4.666;2022-12-11T00:15:19;33.13;31.07;35.69;;
66449;Laerm;56828;52.294;4.666;2022-12-11T00:15:29;33.28;32.13;34.61;;
66449;Laerm;56828;52.294;4.666;2022-12-11T00:15:39;33.89;32.08;35.69;;
66449;Laerm;56828;52.294;4.666;2022-12-11T00:15:59;33.44;31.53;37.18;;
66449;Laerm;56828;52.294;4.666;2022-12-11T00:16:09;33.28;31.02;40.16;;
66449;Laerm;56828;52.294;4.666;2022-12-11T00:16:20;33.16;31.73;34.64;;
66449;Laerm;56828;52.294;4.666;2022-12-11T00:16:30;34.16;32.05;36.14;;
66449;Laerm;56828;52.294;4.666;2022-12-11T00:16:40;34.03;32.63;36.90;;
66449;Laerm;56828;52.294;4.666;2022-12-11T00:16:51;34.60;32.87;37.32;;
66449;Laerm;56828;52.294;4.666;2022-12-11T00:17:01;37.58;33.90;42.09;;
66449;Laerm;56828;52.294;4.666;2022-12-11T00:17:11;36.43;33.37;41.11;;
66449;Laerm;56828;52.294;4.666;2022-12-11T00:17:21;37.15;34.45;40.29;;
66449;Laerm;56828;52.294;4.666;2022-12-11T00:17:40;39.19;34.67;42.81;;
66449;Laerm;56828;52.294;4.666;2022-12-11T00:17:50;34.66;31.99;37.34;;
66449;Laerm;56828;52.294;4.666;2022-12-11T00:18:00;35.24;33.59;37.62;;
66449;Laerm;56828;52.294;4.666;2022-12-11T00:18:13;36.21;33.26;49.44;;
66449;Laerm;56828;52.294;4.666;2022-12-11T00:18:23;35.13;32.72;38.38;;
66449;Laerm;56828;52.294;4.666;2022-12-11T00:18:34;35.07;32.90;40.44;;
66449;Laerm;56828;52.294;4.666;2022-12-11T00:18:44;35.24;33.00;40.07;;
66449;Laerm;56828;52.294;4.666;2022-12-11T00:18:54;36.43;33.84;39.33;;
66449;Laerm;56828;52.294;4.666;2022-12-11T00:19:05;35.35;33.54;37.14;;
66449;Laerm;56828;52.294;4.666;2022-12-11T00:19:15;36.03;32.94;43.05;;
66449;Laerm;56828;52.294;4.666;2022-12-11T00:19:25;34.53;33.08;37.75;;
66449;Laerm;56828;52.294;4.666;2022-12-11T00:19:36;34.67;32.78;37.39;;
66449;Laerm;56828;52.294;4.666;2022-12-11T00:19:46;36.83;33.57;43.14;;
66449;Laerm;56828;52.294;4.666;2022-12-11T00:19:56;40.22;35.20;52.04;;
66449;Laerm;56828;52.294;4.666;2022-12-11T00:20:07;38.54;35.49;46.70;;
66449;Laerm;56828;52.294;4.666;2022-12-11T00:20:18;38.52;34.23;48.81;;
66449;Laerm;56828;52.294;4.666;2022-12-11T00:20:28;36.01;33.54;39.85;;
66449;Laerm;56828;52.294;4.666;2022-12-11T00:20:38;34.81;33.05;36.41;;
66449;Laerm;56828;52.294;4.666;2022-12-11T00:20:48;34.77;33.35;37.02;;
66449;Laerm;56828;52.294;4.666;2022-12-11T00:20:59;36.85;33.28;42.15;;
66449;Laerm;56828;52.294;4.666;2022-12-11T00:21:13;38.36;35.06;47.39;;
66449;Laerm;56828;52.294;4.666;2022-12-11T00:21:24;38.70;35.31;45.74;;
66449;Laerm;56828;52.294;4.666;2022-12-11T00:21:34;35.96;34.07;37.86;;
66449;Laerm;56828;52.294;4.666;2022-12-11T00:21:45;35.53;33.76;37.85;;
66449;Laerm;56828;52.294;4.666;2022-12-11T00:21:55;37.00;34.90;39.91;;
66449;Laerm;56828;52.294;4.666;2022-12-11T00:22:05;35.72;34.07;37.67;;
66449;Laerm;56828;52.294;4.666;2022-12-11T00:22:15;38.93;33.84;51.53;;
66449;Laerm;56828;52.294;4.666;2022-12-11T00:22:26;38.14;35.40;46.07;;
66449;Laerm;56828;52.294;4.666;2022-12-11T00:22:38;37.69;35.00;44.72;;
66449;Laerm;56828;52.294;4.666;2022-12-11T00:22:48;37.06;34.36;40.81;;
66449;Laerm;56828;52.294;4.666;2022-12-11T00:22:58;37.23;34.50;44.72;;
66449;Laerm;56828;52.294;4.666;2022-12-11T00:23:09;42.17;35.14;57.57;;
66449;Laerm;56828;52.294;4.666;2022-12-11T00:23:20;37.50;35.77;39.27;;
66449;Laerm;56828;52.294;4.666;2022-12-11T00:23:33;37.22;34.90;39.97;;
66449;Laerm;56828;52.294;4.666;2022-12-11T00:23:44;40.01;36.79;45.94;;
66449;Laerm;56828;52.294;4.666;2022-12-11T00:24:02;41.95;35.14;48.88;;
66449;Laerm;56828;52.294;4.666;2022-12-11T00:24:12;37.71;34.49;45.31;;
66449;Laerm;56828;52.294;4.666;2022-12-11T00:24:22;38.00;35.90;42.22;;
66449;Laerm;56828;52.294;4.666;2022-12-11T00:24:33;37.58;35.28;41.57;;
66449;Laerm;56828;52.294;4.666;2022-12-11T00:24:43;37.83;35.30;40.53;;
66449;Laerm;56828;52.294;4.666;2022-12-11T00:24:53;37.25;34.44;39.52;;
66449;Laerm;56828;52.294;4.666;2022-12-11T00:25:03;46.60;36.40;59.32;;
66449;Laerm;56828;52.294;4.666;2022-12-11T00:25:14;39.09;34.23;54.36;;
66449;Laerm;56828;52.294;4.666;2022-12-11T00:25:24;37.87;33.48;44.94;;
66449;Laerm;56828;52.294;4.666;2022-12-11T00:25:34;38.09;34.65;46.15;;
66449;Laerm;56828;52.294;4.666;2022-12-11T00:25:45;36.90;33.85;46.08;;
66449;Laerm;56828;52.294;4.666;2022-12-11T00:25:55;38.05;33.60;49.66;;
66449;Laerm;56828;52.294;4.666;2022-12-11T00:26:06;35.99;34.11;39.11;;
66449;Laerm;56828;52.294;4.666;2022-12-11T00:26:18;37.60;33.96;48.52;;
66449;Laerm;56828;52.294;4.666;2022-12-11T00:26:28;38.42;35.87;42.01;;
66449;Laerm;56828;52.294;4.666;2022-12-11T00:26:38;38.73;35.32;48.79;;
66449;Laerm;56828;52.294;4.666;2022-12-11T00:26:49;38.54;35.32;45.45;;
66449;Laerm;56828;52.294;4.666;2022-12-11T00:26:59;36.78;35.33;40.05;;
66449;Laerm;56828;52.294;4.666;2022-12-11T00:27:09;36.66;35.00;40.44;;
66449;Laerm;56828;52.294;4.666;2022-12-11T00:27:20;38.50;36.31;40.67;;
66449;Laerm;56828;52.294;4.666;2022-12-11T00:27:30;39.29;35.56;44.09;;
66449;Laerm;56828;52.294;4.666;2022-12-11T00:27:41;44.33;38.55;49.28;;
66449;Laerm;56828;52.294;4.666;2022-12-11T00:27:51;42.63;35.47;48.99;;
66449;Laerm;56828;52.294;4.666;2022-12-11T00:28:03;37.49;34.98;39.52;;
66449;Laerm;56828;52.294;4.666;2022-12-11T00:28:14;38.26;36.19;41.18;;
66449;Laerm;56828;52.294;4.666;2022-12-11T00:28:25;36.70;34.31;40.18;;
66449;Laerm;56828;52.294;4.666;2022-12-11T00:28:38;35.98;33.77;37.91;;
66449;Laerm;56828;52.294;4.666;2022-12-11T00:28:51;35.72;34.09;37.22;;
66449;Laerm;56828;52.294;4.666;2022-12-11T00:29:04;35.51;33.71;37.63;;
66449;Laerm;56828;52.294;4.666;2022-12-11T00:29:14;37.07;34.45;40.21;;
66449;Laerm;56828;52.294;4.666;2022-12-11T00:29:24;36.65;33.65;43.16;;
66449;Laerm;56828;52.294;4.666;2022-12-11T00:29:34;37.49;35.42;40.06;;
66449;Laerm;56828;52.294;4.666;2022-12-11T00:29:45;36.83;34.72;39.07;;
66449;Laerm;56828;52.294;4.666;2022-12-11T00:29:55;43.33;36.50;48.12;;
66449;Laerm;56828;52.294;4.666;2022-12-11T00:30:05;42.54;37.38;48.33;;
66449;Laerm;56828;52.294;4.666;2022-12-11T00:30:16;37.16;35.40;40.21;;
66449;Laerm;56828;52.294;4.666;2022-12-11T00:30:26;37.13;35.56;38.96;;
66449;Laerm;56828;52.294;4.666;2022-12-11T00:30:39;37.77;35.92;42.21;;
66449;Laerm;56828;52.294;4.666;2022-12-11T00:30:50;38.09;34.79;47.17;;
66449;Laerm;56828;52.294;4.666;2022-12-11T00:31:04;37.30;34.80;41.15;;
66449;Laerm;56828;52.294;4.666;2022-12-11T00:31:15;38.42;35.94;40.92;;
66449;Laerm;56828;52.294;4.666;2022-12-11T00:31:44;40.97;36.38;45.81;;
66449;Laerm;56828;52.294;4.666;2022-12-11T00:31:54;38.17;34.22;44.20;;
66449;Laerm;56828;52.294;4.666;2022-12-11T00:32:04;40.61;35.34;47.21;;
66449;Laerm;56828;52.294;4.666;2022-12-11T00:32:17;37.00;35.62;38.85;;
66449;Laerm;56828;52.294;4.666;2022-12-11T00:32:30;36.76;34.99;39.15;;
66449;Laerm;56828;52.294;4.666;2022-12-11T00:32:41;36.51;34.64;38.95;;
66449;Laerm;56828;52.294;4.666;2022-12-11T00:32:52;37.41;35.52;39.51;;
66449;Laerm;56828;52.294;4.666;2022-12-11T00:33:18;38.00;35.52;41.04;;
66449;Laerm;56828;52.294;4.666;2022-12-11T00:33:29;41.32;36.75;44.90;;
66449;Laerm;56828;52.294;4.666;2022-12-11T00:33:39;41.36;37.89;44.82;;
66449;Laerm;56828;52.294;4.666;2022-12-11T00:33:49;38.84;36.16;45.24;;
66449;Laerm;56828;52.294;4.666;2022-12-11T00:34:06;43.09;38.12;51.81;;
66449;Laerm;56828;52.294;4.666;2022-12-11T00:34:16;38.26;36.35;40.96;;
66449;Laerm;56828;52.294;4.666;2022-12-11T00:34:26;39.70;36.09;42.46;;
66449;Laerm;56828;52.294;4.666;2022-12-11T00:34:37;40.34;36.03;46.96;;
66449;Laerm;56828;52.294;4.666;2022-12-11T00:34:47;37.10;35.09;40.20;;
66449;Laerm;56828;52.294;4.666;2022-12-11T00:34:57;38.51;35.27;41.51;;
66449;Laerm;56828;52.294;4.666;2022-12-11T00:35:08;38.49;36.21;41.67;;
66449;Laerm;56828;52.294;4.666;2022-12-11T00:35:18;36.71;34.84;39.81;;
66449;Laerm;56828;52.294;4.666;2022-12-11T00:35:29;36.35;34.63;37.70;;
66449;Laerm;56828;52.294;4.666;2022-12-11T00:35:40;38.82;34.83;50.49;;
66449;Laerm;56828;52.294;4.666;2022-12-11T00:35:50;39.15;35.29;49.97;;
66449;Laerm;56828;52.294;4.666;2022-12-11T00:36:00;37.37;35.50;40.80;;
66449;Laerm;56828;52.294;4.666;2022-12-11T00:36:14;37.81;35.37;43.29;;
66449;Laerm;56828;52.294;4.666;2022-12-11T00:36:32;36.67;34.44;39.26;;
66449;Laerm;56828;52.294;4.666;2022-12-11T00:36:45;37.41;35.36;39.82;;
66449;Laerm;56828;52.294;4.666;2022-12-11T00:36:55;41.04;37.84;44.86;;
66449;Laerm;56828;52.294;4.666;2022-12-11T00:37:05;39.73;36.37;43.90;;
66449;Laerm;56828;52.294;4.666;2022-12-11T00:37:18;38.14;35.73;40.87;;
66449;Laerm;56828;52.294;4.666;2022-12-11T00:37:28;38.07;35.52;42.49;;
66449;Laerm;56828;52.294;4.666;2022-12-11T00:37:39;41.68;38.76;44.05;;
66449;Laerm;56828;52.294;4.666;2022-12-11T00:37:49;44.90;41.09;49.57;;
66449;Laerm;56828;52.294;4.666;2022-12-11T00:38:02;37.51;34.29;42.40;;
66449;Laerm;56828;52.294;4.666;2022-12-11T00:38:15;36.03;34.20;38.42;;
66449;Laerm;56828;52.294;4.666;2022-12-11T00:38:28;36.96;33.82;49.24;;
66449;Laerm;56828;52.294;4.666;2022-12-11T00:38:38;35.98;33.72;41.26;;
66449;Laerm;56828;52.294;4.666;2022-12-11T00:38:52;36.93;33.75;45.15;;
66449;Laerm;56828;52.294;4.666;2022-12-11T00:39:03;36.05;32.57;44.18;;
66449;Laerm;56828;52.294;4.666;2022-12-11T00:39:16;35.21;32.68;39.16;;
66449;Laerm;56828;52.294;4.666;2022-12-11T00:39:27;36.94;34.19;48.37;;
66449;Laerm;56828;52.294;4.666;2022-12-11T00:39:37;35.72;33.96;38.08;;
66449;Laerm;56828;52.294;4.666;2022-12-11T00:40:04;35.75;33.73;38.23;;
66449;Laerm;56828;52.294;4.666;2022-12-11T00:40:28;35.97;32.95;39.42;;
66449;Laerm;56828;52.294;4.666;2022-12-11T00:40:38;35.87;33.65;38.74;;
66449;Laerm;56828;52.294;4.666;2022-12-11T00:40:48;36.54;33.82;40.60;;
66449;Laerm;56828;52.294;4.666;2022-12-11T00:40:59;35.84;34.15;37.26;;
66449;Laerm;56828;52.294;4.666;2022-12-11T00:41:09;38.57;33.98;43.18;;
66449;Laerm;56828;52.294;4.666;2022-12-11T00:41:20;46.86;38.49;53.70;;
66449;Laerm;56828;52.294;4.666;2022-12-11T00:41:30;45.96;34.84;53.74;;
66449;Laerm;56828;52.294;4.666;2022-12-11T00:41:40;37.99;34.39;40.62;;
66449;Laerm;56828;52.294;4.666;2022-12-11T00:41:53;35.54;33.40;38.61;;
66449;Laerm;56828;52.294;4.666;2022-12-11T00:42:08;35.17;32.74;45.01;;
66449;Laerm;56828;52.294;4.666;2022-12-11T00:42:18;37.02;33.08;41.96;;
66449;Laerm;56828;52.294;4.666;2022-12-11T00:42:28;36.37;34.21;43.05;;
66449;Laerm;56828;52.294;4.666;2022-12-11T00:42:38;36.71;34.21;44.41;;
66449;Laerm;56828;52.294;4.666;2022-12-11T00:42:49;36.16;33.97;38.78;;
66449;Laerm;56828;52.294;4.666;2022-12-11T00:42:59;35.00;33.16;41.06;;
66449;Laerm;56828;52.294;4.666;2022-12-11T00:43:12;37.63;33.46;52.00;;
66449;Laerm;56828;52.294;4.666;2022-12-11T00:43:22;38.09;34.22;47.22;;
66449;Laerm;56828;52.294;4.666;2022-12-11T00:43:32;35.86;33.63;37.80;;
66449;Laerm;56828;52.294;4.666;2022-12-11T00:43:43;36.03;33.34;40.49;;
66449;Laerm;56828;52.294;4.666;2022-12-11T00:43:56;35.33;32.85;38.44;;
66449;Laerm;56828;52.294;4.666;2022-12-11T00:44:21;35.48;32.66;44.93;;
66449;Laerm;56828;52.294;4.666;2022-12-11T00:44:32;34.38;32.64;39.76;;
66449;Laerm;56828;52.294;4.666;2022-12-11T00:44:42;33.99;32.03;37.05;;
66449;Laerm;56828;52.294;4.666;2022-12-11T00:44:55;35.42;32.55;39.05;;
66449;Laerm;56828;52.294;4.666;2022-12-11T00:45:08;36.71;33.86;44.62;;
66449;Laerm;56828;52.294;4.666;2022-12-11T00:45:26;37.00;34.01;49.11;;
66449;Laerm;56828;52.294;4.666;2022-12-11T00:45:37;36.34;33.66;41.04;;
66449;Laerm;56828;52.294;4.666;2022-12-11T00:45:48;36.72;34.00;40.53;;
66449;Laerm;56828;52.294;4.666;2022-12-11T00:45:58;34.01;32.27;36.01;;
66449;Laerm;56828;52.294;4.666;2022-12-11T00:46:09;35.08;32.50;43.04;;
66449;Laerm;56828;52.294;4.666;2022-12-11T00:46:19;34.77;32.84;41.20;;
66449;Laerm;56828;52.294;4.666;2022-12-11T00:46:29;35.18;32.74;38.32;;
66449;Laerm;56828;52.294;4.666;2022-12-11T00:46:40;35.47;33.08;38.68;;
66449;Laerm;56828;52.294;4.666;2022-12-11T00:46:50;34.16;32.48;36.40;;
66449;Laerm;56828;52.294;4.666;2022-12-11T00:47:00;34.01;32.39;36.91;;
66449;Laerm;56828;52.294;4.666;2022-12-11T00:47:11;34.96;33.20;38.63;;
66449;Laerm;56828;52.294;4.666;2022-12-11T00:47:21;35.11;32.77;39.95;;
66449;Laerm;56828;52.294;4.666;2022-12-11T00:47:31;36.94;33.75;40.86;;
66449;Laerm;56828;52.294;4.666;2022-12-11T00:47:42;39.01;33.96;45.42;;
66449;Laerm;56828;52.294;4.666;2022-12-11T00:47:52;37.68;34.29;44.73;;
66449;Laerm;56828;52.294;4.666;2022-12-11T00:48:02;37.24;33.70;41.22;;
66449;Laerm;56828;52.294;4.666;2022-12-11T00:48:18;37.40;33.99;42.87;;
66449;Laerm;56828;52.294;4.666;2022-12-11T00:48:28;37.71;34.15;42.68;;
66449;Laerm;56828;52.294;4.666;2022-12-11T00:48:39;36.17;32.77;39.45;;
66449;Laerm;56828;52.294;4.666;2022-12-11T00:48:49;36.03;33.18;42.85;;
66449;Laerm;56828;52.294;4.666;2022-12-11T00:48:59;34.92;32.99;38.68;;
66449;Laerm;56828;52.294;4.666;2022-12-11T00:49:10;35.57;32.86;48.69;;
66449;Laerm;56828;52.294;4.666;2022-12-11T00:49:31;34.67;32.38;41.53;;
66449;Laerm;56828;52.294;4.666;2022-12-11T00:49:41;34.82;33.04;38.10;;
66449;Laerm;56828;52.294;4.666;2022-12-11T00:49:54;35.40;33.39;37.69;;
66449;Laerm;56828;52.294;4.666;2022-12-11T00:50:05;36.30;33.91;41.60;;
66449;Laerm;56828;52.294;4.666;2022-12-11T00:50:15;35.58;33.53;37.46;;
66449;Laerm;56828;52.294;4.666;2022-12-11T00:50:26;36.46;34.61;41.47;;
66449;Laerm;56828;52.294;4.666;2022-12-11T00:50:36;36.46;34.26;41.68;;
66449;Laerm;56828;52.294;4.666;2022-12-11T00:50:47;36.26;33.86;41.77;;
66449;Laerm;56828;52.294;4.666;2022-12-11T00:50:57;35.56;33.60;38.37;;
66449;Laerm;56828;52.294;4.666;2022-12-11T00:51:08;37.95;34.24;42.76;;
66449;Laerm;56828;52.294;4.666;2022-12-11T00:51:19;40.18;37.23;43.52;;
66449;Laerm;56828;52.294;4.666;2022-12-11T00:51:29;47.31;39.64;51.91;;
66449;Laerm;56828;52.294;4.666;2022-12-11T00:51:40;42.24;37.48;45.74;;
66449;Laerm;56828;52.294;4.666;2022-12-11T00:51:50;38.09;33.79;44.58;;
66449;Laerm;56828;52.294;4.666;2022-12-11T00:52:00;35.46;33.54;38.15;;
66449;Laerm;56828;52.294;4.666;2022-12-11T00:52:10;38.75;34.46;43.58;;
66449;Laerm;56828;52.294;4.666;2022-12-11T00:52:21;49.76;36.18;55.42;;
66449;Laerm;56828;52.294;4.666;2022-12-11T00:52:31;58.00;50.68;63.32;;
66449;Laerm;56828;52.294;4.666;2022-12-11T00:52:41;52.14;44.43;59.53;;
66449;Laerm;56828;52.294;4.666;2022-12-11T00:52:52;44.92;39.29;48.75;;
66449;Laerm;56828;52.294;4.666;2022-12-11T00:53:02;43.38;38.75;47.54;;
66449;Laerm;56828;52.294;4.666;2022-12-11T00:53:13;37.32;34.31;41.06;;
66449;Laerm;56828;52.294;4.666;2022-12-11T00:53:23;35.03;33.25;37.43;;
66449;Laerm;56828;52.294;4.666;2022-12-11T00:53:33;33.96;32.14;35.41;;
66449;Laerm;56828;52.294;4.666;2022-12-11T00:53:44;33.72;32.03;37.72;;
66449;Laerm;56828;52.294;4.666;2022-12-11T00:53:54;33.88;31.96;35.41;;
66449;Laerm;56828;52.294;4.666;2022-12-11T00:54:04;34.05;31.62;36.06;;
66449;Laerm;56828;52.294;4.666;2022-12-11T00:54:15;33.55;31.81;35.35;;
66449;Laerm;56828;52.294;4.666;2022-12-11T00:54:26;33.99;32.00;35.60;;
66449;Laerm;56828;52.294;4.666;2022-12-11T00:54:36;36.46;32.53;39.46;;
66449;Laerm;56828;52.294;4.666;2022-12-11T00:54:46;40.59;35.31;43.31;;
66449;Laerm;56828;52.294;4.666;2022-12-11T00:54:56;40.20;34.41;43.70;;
66449;Laerm;56828;52.294;4.666;2022-12-11T00:55:10;34.73;32.36;37.77;;
66449;Laerm;56828;52.294;4.666;2022-12-11T00:55:22;33.89;32.11;37.30;;
66449;Laerm;56828;52.294;4.666;2022-12-11T00:55:38;33.97;31.69;36.40;;
66449;Laerm;56828;52.294;4.666;2022-12-11T00:55:50;34.38;32.60;36.46;;
66449;Laerm;56828;52.294;4.666;2022-12-11T00:56:01;34.52;32.55;36.89;;
66449;Laerm;56828;52.294;4.666;2022-12-11T00:56:19;41.60;32.59;55.04;;
66449;Laerm;56828;52.294;4.666;2022-12-11T00:56:29;34.22;32.11;37.92;;
66449;Laerm;56828;52.294;4.666;2022-12-11T00:56:39;34.06;32.25;37.29;;
66449;Laerm;56828;52.294;4.666;2022-12-11T00:56:50;34.10;32.27;37.99;;
66449;Laerm;56828;52.294;4.666;2022-12-11T00:57:00;37.22;32.45;44.65;;
66449;Laerm;56828;52.294;4.666;2022-12-11T00:57:10;47.42;38.33;53.59;;
66449;Laerm;56828;52.294;4.666;2022-12-11T00:57:23;36.19;31.91;44.56;;
66449;Laerm;56828;52.294;4.666;2022-12-11T00:57:34;34.51;32.02;39.53;;
66449;Laerm;56828;52.294;4.666;2022-12-11T00:57:44;33.69;31.76;36.26;;
66449;Laerm;56828;52.294;4.666;2022-12-11T00:57:55;35.51;33.05;38.86;;
66449;Laerm;56828;52.294;4.666;2022-12-11T00:58:05;35.94;32.84;39.29;;
66449;Laerm;56828;52.294;4.666;2022-12-11T00:58:16;34.39;31.66;37.58;;
66449;Laerm;56828;52.294;4.666;2022-12-11T00:58:26;33.93;31.12;36.77;;
66449;Laerm;56828;52.294;4.666;2022-12-11T00:58:36;33.46;32.22;34.93;;
66449;Laerm;56828;52.294;4.666;2022-12-11T00:58:53;33.50;31.63;35.72;;
66449;Laerm;56828;52.294;4.666;2022-12-11T00:59:03;35.84;33.28;38.50;;
66449;Laerm;56828;52.294;4.666;2022-12-11T00:59:13;35.89;32.99;39.15;;
66449;Laerm;56828;52.294;4.666;2022-12-11T00:59:27;40.75;37.79;44.10;;
66449;Laerm;56828;52.294;4.666;2022-12-11T00:59:38;38.23;34.68;40.70;;
66449;Laerm;56828;52.294;4.666;2022-12-11T00:59:48;35.48;33.04;38.69;;
66449;Laerm;56828;52.294;4.666;2022-12-11T01:00:02;34.69;32.96;36.25;;
66449;Laerm;56828;52.294;4.666;2022-12-11T01:00:13;34.82;32.53;37.31;;
66449;Laerm;56828;52.294;4.666;2022-12-11T01:00:23;34.12;31.75;35.73;;
66449;Laerm;56828;52.294;4.666;2022-12-11T01:00:34;34.05;32.38;37.99;;
66449;Laerm;56828;52.294;4.666;2022-12-11T01:00:44;33.56;32.03;35.18;;
66449;Laerm;56828;52.294;4.666;2022-12-11T01:00:54;34.30;32.78;35.80;;
66449;Laerm;56828;52.294;4.666;2022-12-11T01:01:15;33.91;31.57;36.46;;
66449;Laerm;56828;52.294;4.666;2022-12-11T01:01:25;33.84;31.85;36.81;;
66449;Laerm;56828;52.294;4.666;2022-12-11T01:01:36;34.48;31.97;36.73;;
66449;Laerm;56828;52.294;4.666;2022-12-11T01:01:48;35.31;32.86;38.15;;
66449;Laerm;56828;52.294;4.666;2022-12-11T01:01:59;35.48;33.55;42.40;;
66449;Laerm;56828;52.294;4.666;2022-12-11T01:02:09;38.61;35.19;41.71;;
66449;Laerm;56828;52.294;4.666;2022-12-11T01:02:19;38.43;33.69;42.48;;
66449;Laerm;56828;52.294;4.666;2022-12-11T01:02:32;37.35;34.00;46.70;;
66449;Laerm;56828;52.294;4.666;2022-12-11T01:02:43;36.08;34.51;37.89;;
66449;Laerm;56828;52.294;4.666;2022-12-11T01:02:53;37.52;35.39;40.63;;
66449;Laerm;56828;52.294;4.666;2022-12-11T01:03:04;37.90;35.79;41.21;;
66449;Laerm;56828;52.294;4.666;2022-12-11T01:03:15;35.96;33.11;40.63;;
66449;Laerm;56828;52.294;4.666;2022-12-11T01:03:25;39.96;35.71;46.22;;
66449;Laerm;56828;52.294;4.666;2022-12-11T01:03:35;43.06;36.65;57.58;;
66449;Laerm;56828;52.294;4.666;2022-12-11T01:03:46;38.50;35.54;44.14;;
66449;Laerm;56828;52.294;4.666;2022-12-11T01:03:57;36.65;34.36;38.38;;
66449;Laerm;56828;52.294;4.666;2022-12-11T01:04:08;39.37;34.26;56.54;;
66449;Laerm;56828;52.294;4.666;2022-12-11T01:04:18;35.29;33.33;37.19;;
66449;Laerm;56828;52.294;4.666;2022-12-11T01:04:28;35.35;33.48;38.19;;
66449;Laerm;56828;52.294;4.666;2022-12-11T01:04:38;36.41;34.42;40.45;;
66449;Laerm;56828;52.294;4.666;2022-12-11T01:04:49;45.28;38.03;49.40;;
66449;Laerm;56828;52.294;4.666;2022-12-11T01:05:06;43.55;36.33;50.02;;